createdAt,value
2023-02-13T00:07:24.217Z,66.45
2023-02-13T00:17:48.491Z,66.57
2023-02-13T00:28:13.295Z,66.52
2023-02-13T00:38:39.443Z,66.60
2023-02-13T00:49:03.776Z,66.71
2023-02-13T00:59:28.584Z,66.85
2023-02-13T01:09:53.423Z,67.28
2023-02-13T01:20:18.696Z,67.48
2023-02-13T01:30:42.957Z,67.73
2023-02-13T01:41:08.599Z,67.70
2023-02-13T01:51:36.433Z,67.97
2023-02-13T02:02:02.782Z,68.09
2023-02-13T02:12:36.547Z,68.35
2023-02-13T02:23:24.930Z,68.11
2023-02-13T02:33:59.860Z,67.88
2023-02-13T02:44:34.646Z,67.77
2023-02-13T02:55:08.426Z,67.87
2023-02-13T03:06:06.090Z,68.24
2023-02-13T03:16:49.313Z,68.48
2023-02-13T03:27:44.047Z,68.49
2023-02-13T03:38:15.415Z,68.54
2023-02-13T03:49:01.066Z,68.41
2023-02-13T03:59:31.301Z,68.44
2023-02-13T04:09:58.245Z,68.39
2023-02-13T04:20:26.473Z,68.35
2023-02-13T04:30:51.319Z,68.50
2023-02-13T04:41:16.184Z,68.57
2023-02-13T04:51:41.024Z,68.54
2023-02-13T05:02:05.981Z,68.88
2023-02-13T05:12:30.791Z,69.59
2023-02-13T05:23:14.119Z,69.87
2023-02-13T05:33:39.217Z,70.41
2023-02-13T05:44:04.413Z,70.42
2023-02-13T05:54:29.277Z,70.33
2023-02-13T06:04:54.120Z,70.09
2023-02-13T06:15:19.315Z,70.49
2023-02-13T06:25:44.336Z,70.24
2023-02-13T06:36:09.505Z,70.02
2023-02-13T06:46:34.438Z,69.82
2023-02-13T06:56:59.514Z,69.20
2023-02-13T07:07:24.736Z,69.03
2023-02-13T07:17:54.986Z,69.46
2023-02-13T07:28:19.298Z,69.70
2023-02-13T07:38:44.112Z,69.71
2023-02-13T07:49:09.035Z,69.81
2023-02-13T07:59:34.089Z,70.39
2023-02-13T08:10:17.253Z,71.04
2023-02-13T08:20:41.527Z,70.80
2023-02-13T08:31:11.949Z,71.05
2023-02-13T08:41:36.403Z,71.44
2023-02-13T08:52:01.947Z,71.62
2023-02-13T09:02:26.260Z,71.52
2023-02-13T09:12:53.882Z,71.85
2023-02-13T09:23:18.758Z,72.22
2023-02-13T09:33:44.166Z,72.13
2023-02-13T09:44:33.174Z,72.41
2023-02-13T09:54:58.299Z,72.44
2023-02-13T10:05:42.252Z,72.46
2023-02-13T10:16:12.431Z,72.52
2023-02-13T10:26:44.953Z,72.72
2023-02-13T10:37:15.679Z,72.77
2023-02-13T10:47:59.536Z,72.95
2023-02-13T10:58:31.927Z,73.33
2023-02-13T11:08:56.207Z,73.32
2023-02-13T11:19:29.519Z,73.43
2023-02-13T11:29:56.836Z,73.73
2023-02-13T11:40:31.765Z,73.72
2023-02-13T11:50:56.806Z,73.87
2023-02-13T12:01:28.690Z,74.13
2023-02-13T12:11:55.195Z,74.29
2023-02-13T12:22:29.775Z,74.12
2023-02-13T12:33:08.501Z,73.87
2023-02-13T12:44:07.846Z,73.86
2023-02-13T12:54:44.435Z,73.82
2023-02-13T13:05:19.495Z,73.67
2023-02-13T13:15:52.333Z,73.72
2023-02-13T13:26:25.839Z,73.92
2023-02-13T13:36:56.554Z,74.27
2023-02-13T13:47:32.318Z,74.26
2023-02-13T13:58:00.717Z,74.38
2023-02-13T14:08:43.972Z,74.46
2023-02-13T14:19:27.044Z,74.33
2023-02-13T14:29:51.972Z,74.21
2023-02-13T14:40:53.823Z,74.27
2023-02-13T14:51:28.196Z,74.32
2023-02-13T15:01:58.948Z,73.70
2023-02-13T15:12:29.564Z,72.88
2023-02-13T15:22:54.610Z,72.80
2023-02-13T15:33:21.304Z,73.07
2023-02-13T15:43:48.327Z,72.98
2023-02-13T15:54:26.244Z,72.29
2023-02-13T16:04:53.171Z,72.64
2023-02-13T16:15:21.071Z,72.79
2023-02-13T16:25:48.375Z,72.79
2023-02-13T16:36:27.973Z,72.75
2023-02-13T16:46:55.564Z,72.40
2023-02-13T16:57:23.753Z,72.00
2023-02-13T17:07:50.481Z,71.94
2023-02-13T17:18:14.852Z,71.93
2023-02-13T17:28:39.437Z,71.44
2023-02-13T17:39:03.737Z,71.59
2023-02-13T17:49:28.568Z,71.13
2023-02-13T17:59:53.461Z,71.72
2023-02-13T18:10:20.479Z,71.72
2023-02-13T18:20:45.393Z,71.56
2023-02-13T18:31:11.079Z,71.49
2023-02-13T18:41:44.815Z,71.16
2023-02-13T18:52:09.265Z,71.73
2023-02-13T19:02:34.217Z,71.90
2023-02-13T19:12:59.155Z,72.10
2023-02-13T19:23:24.016Z,72.01
2023-02-13T19:33:50.312Z,71.61
2023-02-13T19:44:15.435Z,71.73
2023-02-13T19:54:40.268Z,71.22
2023-02-13T20:05:07.910Z,70.90
2023-02-13T20:15:32.528Z,70.80
2023-02-13T20:26:02.147Z,70.71
2023-02-13T20:36:28.285Z,70.50
2023-02-13T20:46:52.427Z,71.11
2023-02-13T20:57:17.242Z,70.80
2023-02-13T21:07:42.044Z,70.58
2023-02-13T21:18:06.391Z,70.51
2023-02-13T21:28:32.255Z,70.85
2023-02-13T21:38:57.928Z,71.34
2023-02-13T21:49:24.586Z,71.65
2023-02-13T21:59:49.482Z,71.76
2023-02-13T22:10:13.834Z,72.22
2023-02-13T22:20:39.389Z,72.75
2023-02-13T22:31:10.047Z,72.64
2023-02-13T22:41:34.294Z,72.42
2023-02-13T22:51:58.528Z,71.87
2023-02-13T23:02:22.742Z,71.31
2023-02-13T23:12:49.299Z,70.81
2023-02-13T23:23:13.496Z,70.44
2023-02-13T23:33:37.810Z,70.19
2023-02-13T23:44:02.146Z,70.01
2023-02-13T23:54:27.189Z,70.13
